sensor_id;sensor_type;location;lat;lon;timestamp;P1;durP1;ratioP1;P2;durP2;ratioP2
15354;SDS011;7777;52.254;9.618;2022-07-22T00:01:31;4.83;;;3.33;;
15354;SDS011;7777;52.254;9.618;2022-07-22T00:03:56;7.00;;;3.77;;
15354;SDS011;7777;52.254;9.618;2022-07-22T00:06:22;4.70;;;3.20;;
15354;SDS011;7777;52.254;9.618;2022-07-22T00:08:48;4.97;;;3.60;;
15354;SDS011;7777;52.254;9.618;2022-07-22T00:11:14;4.97;;;3.47;;
15354;SDS011;7777;52.254;9.618;2022-07-22T00:13:40;6.87;;;4.40;;
15354;SDS011;7777;52.254;9.618;2022-07-22T00:16:06;6.47;;;3.80;;
15354;SDS011;7777;52.254;9.618;2022-07-22T00:18:31;4.30;;;3.90;;
15354;SDS011;7777;52.254;9.618;2022-07-22T00:20:57;4.77;;;3.13;;
15354;SDS011;7777;52.254;9.618;2022-07-22T00:23:23;5.23;;;4.47;;
15354;SDS011;7777;52.254;9.618;2022-07-22T00:25:49;7.20;;;4.63;;
15354;SDS011;7777;52.254;9.618;2022-07-22T00:28:14;4.10;;;3.70;;
15354;SDS011;7777;52.254;9.618;2022-07-22T00:30:40;4.20;;;3.67;;
15354;SDS011;7777;52.254;9.618;2022-07-22T00:33:06;5.10;;;4.20;;
15354;SDS011;7777;52.254;9.618;2022-07-22T00:35:32;4.30;;;3.80;;
15354;SDS011;7777;52.254;9.618;2022-07-22T00:37:57;5.80;;;4.00;;
15354;SDS011;7777;52.254;9.618;2022-07-22T00:40:23;5.23;;;4.70;;
15354;SDS011;7777;52.254;9.618;2022-07-22T00:42:49;5.50;;;5.00;;
15354;SDS011;7777;52.254;9.618;2022-07-22T00:45:15;4.87;;;4.07;;
15354;SDS011;7777;52.254;9.618;2022-07-22T00:47:41;4.50;;;3.90;;
15354;SDS011;7777;52.254;9.618;2022-07-22T00:50:07;4.70;;;4.20;;
15354;SDS011;7777;52.254;9.618;2022-07-22T00:52:33;6.97;;;4.47;;
15354;SDS011;7777;52.254;9.618;2022-07-22T00:55:00;4.13;;;3.73;;
15354;SDS011;7777;52.254;9.618;2022-07-22T00:57:27;4.90;;;4.40;;
15354;SDS011;7777;52.254;9.618;2022-07-22T00:59:54;4.43;;;4.03;;
15354;SDS011;7777;52.254;9.618;2022-07-22T01:02:21;4.80;;;3.90;;
15354;SDS011;7777;52.254;9.618;2022-07-22T01:04:46;6.20;;;3.50;;
15354;SDS011;7777;52.254;9.618;2022-07-22T01:07:12;5.13;;;4.63;;
15354;SDS011;7777;52.254;9.618;2022-07-22T01:09:41;5.37;;;4.37;;
15354;SDS011;7777;52.254;9.618;2022-07-22T01:12:10;5.40;;;4.50;;
15354;SDS011;7777;52.254;9.618;2022-07-22T01:14:37;5.17;;;4.67;;
15354;SDS011;7777;52.254;9.618;2022-07-22T01:17:03;4.23;;;3.83;;
15354;SDS011;7777;52.254;9.618;2022-07-22T01:19:29;4.53;;;2.87;;
15354;SDS011;7777;52.254;9.618;2022-07-22T01:21:55;4.80;;;3.90;;
15354;SDS011;7777;52.254;9.618;2022-07-22T01:24:20;6.27;;;3.57;;
15354;SDS011;7777;52.254;9.618;2022-07-22T01:26:47;4.97;;;4.30;;
15354;SDS011;7777;52.254;9.618;2022-07-22T01:29:13;5.93;;;4.23;;
15354;SDS011;7777;52.254;9.618;2022-07-22T01:31:39;4.73;;;4.23;;
15354;SDS011;7777;52.254;9.618;2022-07-22T01:34:04;6.37;;;4.07;;
15354;SDS011;7777;52.254;9.618;2022-07-22T01:36:31;4.80;;;3.90;;
15354;SDS011;7777;52.254;9.618;2022-07-22T01:38:56;6.43;;;4.10;;
15354;SDS011;7777;52.254;9.618;2022-07-22T01:41:22;5.13;;;4.37;;
15354;SDS011;7777;52.254;9.618;2022-07-22T01:43:48;6.03;;;5.27;;
15354;SDS011;7777;52.254;9.618;2022-07-22T01:46:14;4.70;;;4.10;;
15354;SDS011;7777;52.254;9.618;2022-07-22T01:48:40;5.40;;;4.43;;
15354;SDS011;7777;52.254;9.618;2022-07-22T01:51:06;4.50;;;4.10;;
15354;SDS011;7777;52.254;9.618;2022-07-22T01:53:31;5.40;;;4.47;;
15354;SDS011;7777;52.254;9.618;2022-07-22T01:55:57;4.20;;;3.80;;
15354;SDS011;7777;52.254;9.618;2022-07-22T01:58:23;3.40;;;3.00;;
15354;SDS011;7777;52.254;9.618;2022-07-22T02:00:49;4.87;;;3.73;;
15354;SDS011;7777;52.254;9.618;2022-07-22T02:03:15;5.23;;;4.03;;
15354;SDS011;7777;52.254;9.618;2022-07-22T02:05:41;5.90;;;5.30;;
15354;SDS011;7777;52.254;9.618;2022-07-22T02:08:07;6.77;;;5.80;;
15354;SDS011;7777;52.254;9.618;2022-07-22T02:10:35;6.40;;;5.80;;
15354;SDS011;7777;52.254;9.618;2022-07-22T02:13:02;6.27;;;5.53;;
15354;SDS011;7777;52.254;9.618;2022-07-22T02:15:28;6.77;;;5.87;;
15354;SDS011;7777;52.254;9.618;2022-07-22T02:17:54;7.40;;;5.90;;
15354;SDS011;7777;52.254;9.618;2022-07-22T02:20:21;6.33;;;5.40;;
15354;SDS011;7777;52.254;9.618;2022-07-22T02:22:47;6.67;;;5.60;;
15354;SDS011;7777;52.254;9.618;2022-07-22T02:25:13;7.37;;;5.40;;
15354;SDS011;7777;52.254;9.618;2022-07-22T02:27:39;7.23;;;5.67;;
15354;SDS011;7777;52.254;9.618;2022-07-22T02:30:06;8.17;;;5.63;;
15354;SDS011;7777;52.254;9.618;2022-07-22T02:32:34;6.33;;;5.33;;
15354;SDS011;7777;52.254;9.618;2022-07-22T02:35:00;5.50;;;4.33;;
15354;SDS011;7777;52.254;9.618;2022-07-22T02:37:26;5.73;;;4.50;;
15354;SDS011;7777;52.254;9.618;2022-07-22T02:39:51;6.30;;;4.33;;
15354;SDS011;7777;52.254;9.618;2022-07-22T02:42:17;5.73;;;4.13;;
15354;SDS011;7777;52.254;9.618;2022-07-22T02:44:43;4.50;;;3.70;;
15354;SDS011;7777;52.254;9.618;2022-07-22T02:47:09;5.40;;;4.27;;
15354;SDS011;7777;52.254;9.618;2022-07-22T02:49:34;5.43;;;4.70;;
15354;SDS011;7777;52.254;9.618;2022-07-22T02:52:00;7.20;;;5.90;;
15354;SDS011;7777;52.254;9.618;2022-07-22T02:54:26;5.77;;;4.93;;
15354;SDS011;7777;52.254;9.618;2022-07-22T02:56:51;6.57;;;5.40;;
15354;SDS011;7777;52.254;9.618;2022-07-22T02:59:17;7.03;;;5.37;;
15354;SDS011;7777;52.254;9.618;2022-07-22T03:01:43;7.37;;;5.90;;
15354;SDS011;7777;52.254;9.618;2022-07-22T03:04:09;5.70;;;5.00;;
15354;SDS011;7777;52.254;9.618;2022-07-22T03:06:34;9.50;;;6.30;;
15354;SDS011;7777;52.254;9.618;2022-07-22T03:09:00;7.40;;;6.70;;
15354;SDS011;7777;52.254;9.618;2022-07-22T03:11:26;6.33;;;5.37;;
15354;SDS011;7777;52.254;9.618;2022-07-22T03:13:52;7.23;;;5.80;;
15354;SDS011;7777;52.254;9.618;2022-07-22T03:16:18;7.47;;;5.70;;
15354;SDS011;7777;52.254;9.618;2022-07-22T03:18:44;7.07;;;5.00;;
15354;SDS011;7777;52.254;9.618;2022-07-22T03:21:09;5.80;;;4.47;;
15354;SDS011;7777;52.254;9.618;2022-07-22T03:23:35;4.87;;;4.37;;
15354;SDS011;7777;52.254;9.618;2022-07-22T03:26:01;5.93;;;4.40;;
15354;SDS011;7777;52.254;9.618;2022-07-22T03:28:27;5.00;;;4.43;;
15354;SDS011;7777;52.254;9.618;2022-07-22T03:30:53;10.87;;;4.73;;
15354;SDS011;7777;52.254;9.618;2022-07-22T03:33:19;5.17;;;4.20;;
15354;SDS011;7777;52.254;9.618;2022-07-22T03:35:45;4.97;;;4.47;;
15354;SDS011;7777;52.254;9.618;2022-07-22T03:38:10;8.27;;;4.87;;
15354;SDS011;7777;52.254;9.618;2022-07-22T03:40:36;4.37;;;3.93;;
15354;SDS011;7777;52.254;9.618;2022-07-22T03:43:02;4.70;;;4.17;;
15354;SDS011;7777;52.254;9.618;2022-07-22T03:45:28;5.57;;;4.30;;
15354;SDS011;7777;52.254;9.618;2022-07-22T03:47:53;4.30;;;3.90;;
15354;SDS011;7777;52.254;9.618;2022-07-22T03:50:23;4.17;;;3.77;;
15354;SDS011;7777;52.254;9.618;2022-07-22T03:52:52;4.83;;;4.23;;
15354;SDS011;7777;52.254;9.618;2022-07-22T03:55:18;4.60;;;3.93;;
15354;SDS011;7777;52.254;9.618;2022-07-22T03:57:44;5.07;;;4.20;;
15354;SDS011;7777;52.254;9.618;2022-07-22T04:00:10;4.67;;;4.17;;
15354;SDS011;7777;52.254;9.618;2022-07-22T04:02:36;6.93;;;4.17;;
15354;SDS011;7777;52.254;9.618;2022-07-22T04:05:01;5.17;;;4.00;;
15354;SDS011;7777;52.254;9.618;2022-07-22T04:07:28;3.43;;;3.13;;
15354;SDS011;7777;52.254;9.618;2022-07-22T04:09:53;3.50;;;3.20;;
15354;SDS011;7777;52.254;9.618;2022-07-22T04:12:30;6.83;;;3.60;;
15354;SDS011;7777;52.254;9.618;2022-07-22T04:15:02;4.43;;;3.40;;
15354;SDS011;7777;52.254;9.618;2022-07-22T04:17:29;6.77;;;3.50;;
15354;SDS011;7777;52.254;9.618;2022-07-22T04:19:55;4.57;;;3.47;;
15354;SDS011;7777;52.254;9.618;2022-07-22T04:22:22;4.60;;;4.10;;
15354;SDS011;7777;52.254;9.618;2022-07-22T04:24:50;4.37;;;3.40;;
15354;SDS011;7777;52.254;9.618;2022-07-22T04:27:16;4.40;;;3.47;;
15354;SDS011;7777;52.254;9.618;2022-07-22T04:29:42;5.60;;;3.40;;
15354;SDS011;7777;52.254;9.618;2022-07-22T04:32:07;3.87;;;3.20;;
15354;SDS011;7777;52.254;9.618;2022-07-22T04:34:33;3.90;;;3.23;;
15354;SDS011;7777;52.254;9.618;2022-07-22T04:36:59;6.20;;;3.50;;
15354;SDS011;7777;52.254;9.618;2022-07-22T04:39:24;6.40;;;3.47;;
15354;SDS011;7777;52.254;9.618;2022-07-22T04:41:50;5.53;;;3.30;;
15354;SDS011;7777;52.254;9.618;2022-07-22T04:44:17;4.03;;;2.67;;
15354;SDS011;7777;52.254;9.618;2022-07-22T04:46:43;3.90;;;2.93;;
15354;SDS011;7777;52.254;9.618;2022-07-22T04:49:08;3.70;;;3.20;;
15354;SDS011;7777;52.254;9.618;2022-07-22T04:51:34;9.23;;;2.80;;
15354;SDS011;7777;52.254;9.618;2022-07-22T04:54:00;4.90;;;2.90;;
15354;SDS011;7777;52.254;9.618;2022-07-22T04:56:26;5.00;;;3.67;;
15354;SDS011;7777;52.254;9.618;2022-07-22T04:58:51;4.47;;;3.37;;
15354;SDS011;7777;52.254;9.618;2022-07-22T05:01:17;6.07;;;3.20;;
15354;SDS011;7777;52.254;9.618;2022-07-22T05:03:43;6.63;;;3.20;;
15354;SDS011;7777;52.254;9.618;2022-07-22T05:06:08;4.67;;;3.10;;
15354;SDS011;7777;52.254;9.618;2022-07-22T05:08:34;5.00;;;2.67;;
15354;SDS011;7777;52.254;9.618;2022-07-22T05:11:00;13.03;;;2.83;;
15354;SDS011;7777;52.254;9.618;2022-07-22T05:13:26;3.73;;;2.13;;
15354;SDS011;7777;52.254;9.618;2022-07-22T05:15:52;5.00;;;2.70;;
15354;SDS011;7777;52.254;9.618;2022-07-22T05:18:18;3.07;;;2.17;;
15354;SDS011;7777;52.254;9.618;2022-07-22T05:20:44;2.73;;;1.80;;
15354;SDS011;7777;52.254;9.618;2022-07-22T05:23:10;2.13;;;1.70;;
15354;SDS011;7777;52.254;9.618;2022-07-22T05:25:36;2.60;;;1.63;;
15354;SDS011;7777;52.254;9.618;2022-07-22T05:28:01;3.87;;;1.70;;
15354;SDS011;7777;52.254;9.618;2022-07-22T05:30:27;1.73;;;1.20;;
15354;SDS011;7777;52.254;9.618;2022-07-22T05:32:53;3.50;;;1.27;;
15354;SDS011;7777;52.254;9.618;2022-07-22T05:35:19;3.27;;;1.50;;
15354;SDS011;7777;52.254;9.618;2022-07-22T05:37:45;3.97;;;1.60;;
15354;SDS011;7777;52.254;9.618;2022-07-22T05:40:12;3.20;;;1.60;;
15354;SDS011;7777;52.254;9.618;2022-07-22T05:42:38;4.03;;;1.60;;
15354;SDS011;7777;52.254;9.618;2022-07-22T05:45:03;5.97;;;1.80;;
15354;SDS011;7777;52.254;9.618;2022-07-22T05:47:30;4.00;;;1.80;;
15354;SDS011;7777;52.254;9.618;2022-07-22T05:49:55;3.30;;;1.50;;
15354;SDS011;7777;52.254;9.618;2022-07-22T05:52:21;6.70;;;1.20;;
15354;SDS011;7777;52.254;9.618;2022-07-22T05:54:47;5.40;;;1.70;;
15354;SDS011;7777;52.254;9.618;2022-07-22T05:57:13;5.17;;;1.67;;
15354;SDS011;7777;52.254;9.618;2022-07-22T05:59:38;4.00;;;1.80;;
15354;SDS011;7777;52.254;9.618;2022-07-22T06:02:05;4.27;;;1.83;;
15354;SDS011;7777;52.254;9.618;2022-07-22T06:04:31;5.93;;;2.50;;
15354;SDS011;7777;52.254;9.618;2022-07-22T06:06:57;6.90;;;2.80;;
15354;SDS011;7777;52.254;9.618;2022-07-22T06:09:22;8.80;;;3.53;;
15354;SDS011;7777;52.254;9.618;2022-07-22T06:11:48;10.00;;;3.50;;
15354;SDS011;7777;52.254;9.618;2022-07-22T06:14:14;4.80;;;3.00;;
15354;SDS011;7777;52.254;9.618;2022-07-22T06:16:40;8.53;;;3.50;;
15354;SDS011;7777;52.254;9.618;2022-07-22T06:19:05;7.00;;;3.97;;
15354;SDS011;7777;52.254;9.618;2022-07-22T06:21:31;7.87;;;3.47;;
15354;SDS011;7777;52.254;9.618;2022-07-22T06:23:57;4.40;;;3.47;;
15354;SDS011;7777;52.254;9.618;2022-07-22T06:26:23;7.57;;;2.90;;
15354;SDS011;7777;52.254;9.618;2022-07-22T06:28:48;3.27;;;2.30;;
15354;SDS011;7777;52.254;9.618;2022-07-22T06:31:14;3.53;;;2.10;;
15354;SDS011;7777;52.254;9.618;2022-07-22T06:33:41;4.83;;;1.70;;
15354;SDS011;7777;52.254;9.618;2022-07-22T06:36:07;2.27;;;1.47;;
15354;SDS011;7777;52.254;9.618;2022-07-22T06:38:33;4.63;;;1.57;;
15354;SDS011;7777;52.254;9.618;2022-07-22T06:40:59;2.23;;;1.30;;
15354;SDS011;7777;52.254;9.618;2022-07-22T06:43:26;5.83;;;1.63;;
15354;SDS011;7777;52.254;9.618;2022-07-22T06:45:53;4.60;;;1.33;;
15354;SDS011;7777;52.254;9.618;2022-07-22T06:48:19;2.30;;;1.40;;
15354;SDS011;7777;52.254;9.618;2022-07-22T06:50:45;2.23;;;1.23;;
15354;SDS011;7777;52.254;9.618;2022-07-22T06:53:11;3.60;;;1.40;;
15354;SDS011;7777;52.254;9.618;2022-07-22T06:55:36;4.43;;;2.20;;
15354;SDS011;7777;52.254;9.618;2022-07-22T06:58:02;2.73;;;1.70;;
15354;SDS011;7777;52.254;9.618;2022-07-22T07:00:28;4.97;;;1.40;;
15354;SDS011;7777;52.254;9.618;2022-07-22T07:02:57;2.53;;;1.70;;
15354;SDS011;7777;52.254;9.618;2022-07-22T07:05:24;3.60;;;1.93;;
15354;SDS011;7777;52.254;9.618;2022-07-22T07:07:52;1.73;;;1.30;;
15354;SDS011;7777;52.254;9.618;2022-07-22T07:10:18;4.03;;;1.67;;
15354;SDS011;7777;52.254;9.618;2022-07-22T07:12:44;3.90;;;1.60;;
15354;SDS011;7777;52.254;9.618;2022-07-22T07:15:10;4.73;;;1.40;;
15354;SDS011;7777;52.254;9.618;2022-07-22T07:17:36;6.03;;;2.00;;
15354;SDS011;7777;52.254;9.618;2022-07-22T07:20:03;3.83;;;1.30;;
15354;SDS011;7777;52.254;9.618;2022-07-22T07:22:30;3.20;;;1.33;;
15354;SDS011;7777;52.254;9.618;2022-07-22T07:24:57;2.43;;;1.30;;
15354;SDS011;7777;52.254;9.618;2022-07-22T07:27:30;6.37;;;1.70;;
15354;SDS011;7777;52.254;9.618;2022-07-22T07:29:56;2.87;;;1.63;;
15354;SDS011;7777;52.254;9.618;2022-07-22T07:32:21;2.17;;;1.60;;
15354;SDS011;7777;52.254;9.618;2022-07-22T07:34:47;4.20;;;1.87;;
15354;SDS011;7777;52.254;9.618;2022-07-22T07:37:13;3.53;;;1.43;;
15354;SDS011;7777;52.254;9.618;2022-07-22T07:39:39;2.67;;;1.73;;
15354;SDS011;7777;52.254;9.618;2022-07-22T07:42:05;4.90;;;1.63;;
15354;SDS011;7777;52.254;9.618;2022-07-22T07:44:30;3.37;;;1.73;;
15354;SDS011;7777;52.254;9.618;2022-07-22T07:46:56;6.37;;;2.03;;
15354;SDS011;7777;52.254;9.618;2022-07-22T07:49:22;4.53;;;2.00;;
15354;SDS011;7777;52.254;9.618;2022-07-22T07:51:48;7.67;;;2.57;;
15354;SDS011;7777;52.254;9.618;2022-07-22T07:54:14;6.10;;;2.47;;
15354;SDS011;7777;52.254;9.618;2022-07-22T07:56:40;5.90;;;2.50;;
15354;SDS011;7777;52.254;9.618;2022-07-22T07:59:05;5.00;;;2.53;;
15354;SDS011;7777;52.254;9.618;2022-07-22T08:01:31;7.27;;;2.60;;
15354;SDS011;7777;52.254;9.618;2022-07-22T08:03:57;8.73;;;2.80;;
15354;SDS011;7777;52.254;9.618;2022-07-22T08:06:23;5.83;;;2.50;;
15354;SDS011;7777;52.254;9.618;2022-07-22T08:08:48;4.27;;;2.10;;
15354;SDS011;7777;52.254;9.618;2022-07-22T08:11:14;3.40;;;1.90;;
15354;SDS011;7777;52.254;9.618;2022-07-22T08:13:40;3.40;;;1.60;;
15354;SDS011;7777;52.254;9.618;2022-07-22T08:16:06;3.43;;;2.00;;
15354;SDS011;7777;52.254;9.618;2022-07-22T08:18:31;5.83;;;2.50;;
15354;SDS011;7777;52.254;9.618;2022-07-22T08:20:57;5.30;;;1.80;;
15354;SDS011;7777;52.254;9.618;2022-07-22T08:23:23;4.53;;;2.10;;
15354;SDS011;7777;52.254;9.618;2022-07-22T08:25:49;9.77;;;2.87;;
15354;SDS011;7777;52.254;9.618;2022-07-22T08:28:15;7.07;;;2.47;;
15354;SDS011;7777;52.254;9.618;2022-07-22T08:30:41;5.73;;;1.80;;
15354;SDS011;7777;52.254;9.618;2022-07-22T08:33:08;8.93;;;2.17;;
15354;SDS011;7777;52.254;9.618;2022-07-22T08:35:34;9.10;;;2.33;;
15354;SDS011;7777;52.254;9.618;2022-07-22T08:38:00;7.33;;;2.17;;
15354;SDS011;7777;52.254;9.618;2022-07-22T08:40:26;3.70;;;1.83;;
15354;SDS011;7777;52.254;9.618;2022-07-22T08:42:52;6.90;;;2.30;;
15354;SDS011;7777;52.254;9.618;2022-07-22T08:45:18;9.80;;;2.70;;
15354;SDS011;7777;52.254;9.618;2022-07-22T08:47:45;5.20;;;2.37;;
15354;SDS011;7777;52.254;9.618;2022-07-22T08:50:14;5.90;;;2.10;;
15354;SDS011;7777;52.254;9.618;2022-07-22T08:52:41;5.73;;;2.03;;
15354;SDS011;7777;52.254;9.618;2022-07-22T08:55:07;6.77;;;1.73;;
15354;SDS011;7777;52.254;9.618;2022-07-22T08:57:34;4.00;;;1.90;;
15354;SDS011;7777;52.254;9.618;2022-07-22T09:00:03;5.13;;;1.93;;
15354;SDS011;7777;52.254;9.618;2022-07-22T09:02:37;3.47;;;2.13;;
15354;SDS011;7777;52.254;9.618;2022-07-22T09:05:06;6.07;;;2.37;;
15354;SDS011;7777;52.254;9.618;2022-07-22T09:07:36;7.90;;;2.17;;
15354;SDS011;7777;52.254;9.618;2022-07-22T09:10:08;6.63;;;2.07;;
15354;SDS011;7777;52.254;9.618;2022-07-22T09:12:51;7.53;;;2.10;;
15354;SDS011;7777;52.254;9.618;2022-07-22T09:18:19;4.50;;;1.97;;
15354;SDS011;7777;52.254;9.618;2022-07-22T09:20:45;5.40;;;2.43;;
15354;SDS011;7777;52.254;9.618;2022-07-22T09:23:13;12.33;;;1.70;;
15354;SDS011;7777;52.254;9.618;2022-07-22T09:25:47;6.23;;;2.07;;
15354;SDS011;7777;52.254;9.618;2022-07-22T09:28:14;3.70;;;1.53;;
15354;SDS011;7777;52.254;9.618;2022-07-22T09:30:47;6.33;;;1.93;;
15354;SDS011;7777;52.254;9.618;2022-07-22T09:33:16;3.30;;;1.30;;
15354;SDS011;7777;52.254;9.618;2022-07-22T09:35:43;4.40;;;1.73;;
15354;SDS011;7777;52.254;9.618;2022-07-22T09:38:10;6.80;;;1.80;;
15354;SDS011;7777;52.254;9.618;2022-07-22T09:40:40;4.07;;;1.77;;
15354;SDS011;7777;52.254;9.618;2022-07-22T09:43:10;2.30;;;1.13;;
15354;SDS011;7777;52.254;9.618;2022-07-22T09:45:46;6.33;;;1.83;;
15354;SDS011;7777;52.254;9.618;2022-07-22T09:48:22;4.57;;;1.60;;
15354;SDS011;7777;52.254;9.618;2022-07-22T09:50:49;2.47;;;1.50;;
15354;SDS011;7777;52.254;9.618;2022-07-22T09:53:17;3.37;;;1.67;;
15354;SDS011;7777;52.254;9.618;2022-07-22T09:55:45;3.20;;;1.60;;
15354;SDS011;7777;52.254;9.618;2022-07-22T09:58:12;3.80;;;1.77;;
15354;SDS011;7777;52.254;9.618;2022-07-22T10:00:38;2.53;;;1.40;;
15354;SDS011;7777;52.254;9.618;2022-07-22T10:03:06;3.57;;;1.20;;
15354;SDS011;7777;52.254;9.618;2022-07-22T10:05:36;3.03;;;1.47;;
15354;SDS011;7777;52.254;9.618;2022-07-22T10:11:30;5.00;;;1.73;;
15354;SDS011;7777;52.254;9.618;2022-07-22T10:13:57;3.37;;;1.47;;
15354;SDS011;7777;52.254;9.618;2022-07-22T10:16:23;3.70;;;1.80;;
15354;SDS011;7777;52.254;9.618;2022-07-22T10:18:49;4.43;;;1.60;;
15354;SDS011;7777;52.254;9.618;2022-07-22T10:21:15;3.33;;;1.47;;
15354;SDS011;7777;52.254;9.618;2022-07-22T10:29:39;3.00;;;1.63;;
15354;SDS011;7777;52.254;9.618;2022-07-22T10:35:26;2.60;;;1.70;;
15354;SDS011;7777;52.254;9.618;2022-07-22T10:40:22;3.67;;;1.60;;
15354;SDS011;7777;52.254;9.618;2022-07-22T10:45:33;3.10;;;1.50;;
15354;SDS011;7777;52.254;9.618;2022-07-22T10:48:09;4.40;;;2.10;;
15354;SDS011;7777;52.254;9.618;2022-07-22T10:50:38;4.57;;;2.23;;
15354;SDS011;7777;52.254;9.618;2022-07-22T10:58:51;6.60;;;2.30;;
15354;SDS011;7777;52.254;9.618;2022-07-22T11:01:35;9.47;;;2.40;;
15354;SDS011;7777;52.254;9.618;2022-07-22T11:04:07;4.33;;;2.40;;
15354;SDS011;7777;52.254;9.618;2022-07-22T11:06:44;8.43;;;2.43;;
15354;SDS011;7777;52.254;9.618;2022-07-22T11:09:12;5.30;;;2.40;;
15354;SDS011;7777;52.254;9.618;2022-07-22T11:11:52;5.77;;;2.10;;
15354;SDS011;7777;52.254;9.618;2022-07-22T11:14:20;8.37;;;3.03;;
15354;SDS011;7777;52.254;9.618;2022-07-22T11:17:05;3.63;;;2.00;;
15354;SDS011;7777;52.254;9.618;2022-07-22T11:19:33;5.77;;;2.47;;
15354;SDS011;7777;52.254;9.618;2022-07-22T11:22:03;4.97;;;2.10;;
15354;SDS011;7777;52.254;9.618;2022-07-22T11:24:33;5.50;;;2.20;;
15354;SDS011;7777;52.254;9.618;2022-07-22T11:27:01;4.10;;;1.97;;
15354;SDS011;7777;52.254;9.618;2022-07-22T11:29:29;3.83;;;2.20;;
15354;SDS011;7777;52.254;9.618;2022-07-22T11:32:12;4.70;;;2.43;;
15354;SDS011;7777;52.254;9.618;2022-07-22T11:34:40;7.00;;;2.67;;
15354;SDS011;7777;52.254;9.618;2022-07-22T11:37:10;3.50;;;2.07;;
15354;SDS011;7777;52.254;9.618;2022-07-22T11:39:40;3.73;;;2.20;;
15354;SDS011;7777;52.254;9.618;2022-07-22T11:42:06;4.70;;;2.70;;
15354;SDS011;7777;52.254;9.618;2022-07-22T11:44:35;5.57;;;2.17;;
15354;SDS011;7777;52.254;9.618;2022-07-22T11:47:04;6.97;;;3.07;;
15354;SDS011;7777;52.254;9.618;2022-07-22T11:49:32;5.60;;;2.50;;
15354;SDS011;7777;52.254;9.618;2022-07-22T11:52:01;5.70;;;2.97;;
15354;SDS011;7777;52.254;9.618;2022-07-22T11:54:29;5.23;;;2.47;;
15354;SDS011;7777;52.254;9.618;2022-07-22T11:56:55;8.30;;;3.00;;
15354;SDS011;7777;52.254;9.618;2022-07-22T11:59:21;9.20;;;3.47;;
15354;SDS011;7777;52.254;9.618;2022-07-22T12:01:47;6.73;;;2.80;;
15354;SDS011;7777;52.254;9.618;2022-07-22T12:04:22;7.50;;;2.40;;
15354;SDS011;7777;52.254;9.618;2022-07-22T12:07:03;9.57;;;2.80;;
15354;SDS011;7777;52.254;9.618;2022-07-22T12:09:36;5.07;;;2.27;;
15354;SDS011;7777;52.254;9.618;2022-07-22T12:12:06;6.30;;;3.00;;
15354;SDS011;7777;52.254;9.618;2022-07-22T12:14:32;5.40;;;2.33;;
15354;SDS011;7777;52.254;9.618;2022-07-22T12:17:07;6.90;;;2.60;;
15354;SDS011;7777;52.254;9.618;2022-07-22T12:19:35;7.97;;;3.10;;
15354;SDS011;7777;52.254;9.618;2022-07-22T12:22:21;5.60;;;2.60;;
15354;SDS011;7777;52.254;9.618;2022-07-22T12:25:00;5.40;;;2.70;;
15354;SDS011;7777;52.254;9.618;2022-07-22T12:27:27;8.67;;;3.10;;
15354;SDS011;7777;52.254;9.618;2022-07-22T12:29:53;8.37;;;2.97;;
15354;SDS011;7777;52.254;9.618;2022-07-22T12:34:54;5.53;;;2.30;;
15354;SDS011;7777;52.254;9.618;2022-07-22T12:37:30;3.73;;;2.00;;
15354;SDS011;7777;52.254;9.618;2022-07-22T12:40:08;4.23;;;2.40;;
15354;SDS011;7777;52.254;9.618;2022-07-22T12:42:43;4.10;;;2.57;;
15354;SDS011;7777;52.254;9.618;2022-07-22T12:45:16;4.40;;;2.40;;
15354;SDS011;7777;52.254;9.618;2022-07-22T12:53:09;7.53;;;2.67;;
15354;SDS011;7777;52.254;9.618;2022-07-22T12:55:40;4.47;;;2.30;;
15354;SDS011;7777;52.254;9.618;2022-07-22T12:58:14;5.80;;;2.20;;
15354;SDS011;7777;52.254;9.618;2022-07-22T13:00:48;4.57;;;2.30;;
15354;SDS011;7777;52.254;9.618;2022-07-22T13:03:16;5.37;;;2.37;;
15354;SDS011;7777;52.254;9.618;2022-07-22T13:05:50;3.57;;;2.23;;
15354;SDS011;7777;52.254;9.618;2022-07-22T13:08:18;5.13;;;2.20;;
15354;SDS011;7777;52.254;9.618;2022-07-22T13:10:44;5.03;;;2.37;;
15354;SDS011;7777;52.254;9.618;2022-07-22T13:13:10;3.57;;;2.20;;
15354;SDS011;7777;52.254;9.618;2022-07-22T13:15:36;6.07;;;2.47;;
15354;SDS011;7777;52.254;9.618;2022-07-22T13:18:03;8.13;;;2.73;;
15354;SDS011;7777;52.254;9.618;2022-07-22T13:20:29;7.23;;;3.07;;
15354;SDS011;7777;52.254;9.618;2022-07-22T13:22:56;10.07;;;2.70;;
15354;SDS011;7777;52.254;9.618;2022-07-22T13:25:22;7.87;;;3.13;;
15354;SDS011;7777;52.254;9.618;2022-07-22T13:27:51;6.63;;;2.57;;
15354;SDS011;7777;52.254;9.618;2022-07-22T13:30:18;5.23;;;2.70;;
15354;SDS011;7777;52.254;9.618;2022-07-22T13:32:44;7.13;;;2.90;;
15354;SDS011;7777;52.254;9.618;2022-07-22T13:35:09;4.73;;;2.70;;
15354;SDS011;7777;52.254;9.618;2022-07-22T13:37:35;5.80;;;2.73;;
15354;SDS011;7777;52.254;9.618;2022-07-22T13:40:01;5.17;;;3.07;;
15354;SDS011;7777;52.254;9.618;2022-07-22T13:42:28;5.63;;;3.03;;
15354;SDS011;7777;52.254;9.618;2022-07-22T13:44:54;7.97;;;3.27;;
15354;SDS011;7777;52.254;9.618;2022-07-22T13:47:21;5.70;;;3.27;;
15354;SDS011;7777;52.254;9.618;2022-07-22T13:49:47;5.47;;;2.40;;
15354;SDS011;7777;52.254;9.618;2022-07-22T13:52:14;6.90;;;3.23;;
15354;SDS011;7777;52.254;9.618;2022-07-22T13:54:41;7.93;;;3.20;;
15354;SDS011;7777;52.254;9.618;2022-07-22T13:57:07;5.93;;;2.80;;
15354;SDS011;7777;52.254;9.618;2022-07-22T13:59:34;5.23;;;2.70;;
15354;SDS011;7777;52.254;9.618;2022-07-22T14:02:00;9.97;;;3.50;;
15354;SDS011;7777;52.254;9.618;2022-07-22T14:04:26;5.43;;;2.53;;
15354;SDS011;7777;52.254;9.618;2022-07-22T14:06:53;6.23;;;3.20;;
15354;SDS011;7777;52.254;9.618;2022-07-22T14:09:18;11.93;;;3.87;;
15354;SDS011;7777;52.254;9.618;2022-07-22T14:11:44;10.50;;;3.13;;
15354;SDS011;7777;52.254;9.618;2022-07-22T14:14:10;6.90;;;3.13;;
15354;SDS011;7777;52.254;9.618;2022-07-22T14:16:36;7.17;;;3.23;;
15354;SDS011;7777;52.254;9.618;2022-07-22T14:19:06;9.40;;;3.60;;
15354;SDS011;7777;52.254;9.618;2022-07-22T14:21:35;5.50;;;2.73;;
15354;SDS011;7777;52.254;9.618;2022-07-22T14:24:02;4.50;;;2.87;;
15354;SDS011;7777;52.254;9.618;2022-07-22T14:26:30;3.87;;;2.67;;
15354;SDS011;7777;52.254;9.618;2022-07-22T14:28:56;13.00;;;3.97;;
15354;SDS011;7777;52.254;9.618;2022-07-22T14:31:22;4.23;;;2.83;;
15354;SDS011;7777;52.254;9.618;2022-07-22T14:33:48;12.63;;;3.40;;
15354;SDS011;7777;52.254;9.618;2022-07-22T14:36:14;10.63;;;3.47;;
15354;SDS011;7777;52.254;9.618;2022-07-22T14:38:40;7.53;;;4.40;;
15354;SDS011;7777;52.254;9.618;2022-07-22T14:41:06;6.00;;;2.93;;
15354;SDS011;7777;52.254;9.618;2022-07-22T14:43:33;9.90;;;4.47;;
15354;SDS011;7777;52.254;9.618;2022-07-22T14:45:59;14.03;;;4.40;;
15354;SDS011;7777;52.254;9.618;2022-07-22T14:48:26;8.80;;;3.13;;
15354;SDS011;7777;52.254;9.618;2022-07-22T14:50:53;8.73;;;3.67;;
15354;SDS011;7777;52.254;9.618;2022-07-22T14:53:19;5.50;;;3.30;;
15354;SDS011;7777;52.254;9.618;2022-07-22T14:55:45;9.13;;;3.57;;
15354;SDS011;7777;52.254;9.618;2022-07-22T14:58:11;7.50;;;3.77;;
15354;SDS011;7777;52.254;9.618;2022-07-22T15:00:36;5.93;;;2.83;;
15354;SDS011;7777;52.254;9.618;2022-07-22T15:03:05;8.00;;;3.57;;
15354;SDS011;7777;52.254;9.618;2022-07-22T15:05:31;5.37;;;3.47;;
15354;SDS011;7777;52.254;9.618;2022-07-22T15:07:57;10.50;;;3.90;;
15354;SDS011;7777;52.254;9.618;2022-07-22T15:10:22;10.73;;;4.17;;
15354;SDS011;7777;52.254;9.618;2022-07-22T15:12:48;6.90;;;3.20;;
15354;SDS011;7777;52.254;9.618;2022-07-22T15:15:14;14.07;;;4.80;;
15354;SDS011;7777;52.254;9.618;2022-07-22T15:17:40;9.67;;;3.70;;
15354;SDS011;7777;52.254;9.618;2022-07-22T15:20:05;11.03;;;4.13;;
15354;SDS011;7777;52.254;9.618;2022-07-22T15:22:32;12.43;;;4.87;;
15354;SDS011;7777;52.254;9.618;2022-07-22T15:24:58;7.27;;;3.63;;
15354;SDS011;7777;52.254;9.618;2022-07-22T15:27:24;10.93;;;3.97;;
15354;SDS011;7777;52.254;9.618;2022-07-22T15:29:50;7.73;;;4.30;;
15354;SDS011;7777;52.254;9.618;2022-07-22T15:32:16;7.27;;;4.03;;
15354;SDS011;7777;52.254;9.618;2022-07-22T15:34:42;13.27;;;3.97;;